Time;durP1;ratioP1;P1;durP2;ratioP2;P2;SDS_P1;SDS_P2;PMS_P1;PMS_P2;Temp;Humidity;BMP_temperature;BMP_pressure;BME280_temperature;BME280_humidity;BME280_pressure;Samples;Min_cycle;Max_cycle;Signal;HPM_P1;HPM_P2
2023/03/22 00:01:31;;;;;;;11.32;4.25;;;;;;;8.53;100.00;100826.09;5266345;28;20365;-68
2023/03/22 00:04:02;;;;;;;8.63;3.53;;;;;;;8.51;100.00;100824.38;5248891;28;20460;-68
2023/03/22 00:06:34;;;;;;;9.17;3.67;;;;;;;8.48;100.00;100822.63;5248488;28;20106;-68
2023/03/22 00:09:05;;;;;;;8.60;3.33;;;;;;;8.43;100.00;100820.91;5248463;28;20108;-68
2023/03/22 00:11:37;;;;;;;7.90;3.67;;;;;;;8.41;100.00;100813.13;5266312;28;20114;-68
2023/03/22 00:14:08;;;;;;;6.90;3.63;;;;;;;8.40;100.00;100821.78;5265983;28;20029;-67
2023/03/22 00:16:40;;;;;;;13.63;4.50;;;;;;;8.43;100.00;100813.13;5265767;28;20044;-67
2023/03/22 00:19:11;;;;;;;8.50;3.90;;;;;;;8.46;100.00;100808.81;5266043;28;20108;-68
2023/03/22 00:21:43;;;;;;;7.73;3.47;;;;;;;8.51;100.00;100811.38;5265984;28;20112;-67
2023/03/22 00:24:14;;;;;;;7.77;3.80;;;;;;;8.52;100.00;100807.94;5266037;28;20037;-68
2023/03/22 00:26:46;;;;;;;12.47;4.40;;;;;;;8.49;100.00;100800.16;5265794;28;20758;-67
2023/03/22 00:29:18;;;;;;;11.73;5.60;;;;;;;8.48;100.00;100793.22;5265817;28;20041;-68
2023/03/22 00:31:50;;;;;;;9.43;4.10;;;;;;;8.44;100.00;100789.75;5264553;28;20037;-67
2023/03/22 00:34:22;;;;;;;9.43;4.40;;;;;;;8.43;100.00;100781.94;5266343;28;20086;-67
2023/03/22 00:36:55;;;;;;;11.47;4.80;;;;;;;8.38;100.00;100784.56;5266349;28;20102;-67
2023/03/22 00:39:26;;;;;;;;;;;;;;;8.36;100.00;100781.97;5266038;28;20021;-67
2023/03/22 00:41:57;;;;;;;13.93;4.15;;;;;;;8.35;100.00;100776.78;5265618;28;19968;-67
2023/03/22 00:44:29;;;;;;;12.97;4.30;;;;;;;8.37;100.00;100778.50;5265203;28;20044;-67
2023/03/22 00:47:00;;;;;;;7.97;3.80;;;;;;;8.36;100.00;100768.97;5265399;28;20404;-67
2023/03/22 00:49:33;;;;;;;12.33;4.53;;;;;;;8.44;100.00;100769.00;5265954;28;20375;-67
2023/03/22 00:52:05;;;;;;;13.50;5.20;;;;;;;8.45;100.00;100768.09;5265283;28;20112;-67
2023/03/22 00:54:36;;;;;;;10.50;5.07;;;;;;;8.45;100.00;100760.31;5265708;28;20116;-67
2023/03/22 00:57:08;;;;;;;10.73;5.70;;;;;;;8.47;100.00;100755.09;5265245;28;20037;-67
2023/03/22 00:59:41;;;;;;;10.80;5.50;;;;;;;8.51;100.00;100759.44;5264737;28;20049;-67
2023/03/22 01:02:13;;;;;;;14.30;6.45;;;;;;;8.50;100.00;100742.97;5264725;28;20040;-67
2023/03/22 01:04:48;;;;;;;16.73;7.07;;;;;;;8.56;100.00;100748.16;5265497;28;20024;-67
2023/03/22 01:07:22;;;;;;;12.05;5.80;;;;;;;8.57;100.00;100743.81;5265179;28;20119;-68
2023/03/22 01:09:54;;;;;;;15.35;6.72;;;;;;;8.60;100.00;100738.59;5265247;28;20484;-67
2023/03/22 01:12:25;;;;;;;10.70;6.80;;;;;;;8.64;100.00;100736.84;5263874;28;20031;-67
2023/03/22 01:14:57;;;;;;;12.13;6.00;;;;;;;8.65;100.00;100743.78;5264910;28;20036;-66
2023/03/22 01:17:28;;;;;;;11.80;7.03;;;;;;;8.65;100.00;100736.84;5265380;28;20025;-68
2023/03/22 01:20:00;;;;;;;14.87;7.33;;;;;;;8.68;100.00;100725.56;5264618;28;20171;-67
2023/03/22 01:22:31;;;;;;;14.93;9.23;;;;;;;8.72;100.00;100719.47;5246896;28;20029;-67
2023/03/22 01:25:02;;;;;;;15.13;8.03;;;;;;;8.70;100.00;100716.03;5263746;28;20536;-68
2023/03/22 01:27:34;;;;;;;10.47;8.00;;;;;;;8.78;100.00;100710.78;5264691;28;20120;-67
2023/03/22 01:30:06;;;;;;;12.63;8.50;;;;;;;8.83;100.00;100701.22;5263390;28;20052;-68
2023/03/22 01:32:38;;;;;;;13.43;7.50;;;;;;;8.82;100.00;100687.34;5264280;28;20041;-67
2023/03/22 01:35:09;;;;;;;10.57;7.93;;;;;;;8.84;100.00;100679.53;5263307;28;20094;-67
2023/03/22 01:37:41;;;;;;;15.00;8.97;;;;;;;8.87;100.00;100683.00;5264662;28;20064;-67
2023/03/22 01:40:14;;;;;;;12.23;8.50;;;;;;;8.93;100.00;100679.47;5264390;28;20087;-67
2023/03/22 01:42:45;;;;;;;13.77;8.38;;;;;;;8.98;100.00;100679.44;5264586;28;20033;-67
2023/03/22 01:45:48;;;;;;;15.00;9.47;;;;;;;9.01;100.00;100671.59;5264942;28;20039;-67
2023/03/22 01:48:20;;;;;;;13.57;8.23;;;;;;;9.06;100.00;100657.69;5264612;28;20032;-68
2023/03/22 01:51:20;;;;;;;15.47;9.37;;;;;;;9.13;100.00;100661.13;5264221;28;20127;-67
2023/03/22 01:53:59;;;;;;;14.30;10.63;;;;;;;9.17;100.00;100646.34;5263564;28;20742;-67
2023/03/22 01:56:33;;;;;;;12.07;9.43;;;;;;;9.16;100.00;100645.47;5264285;28;20107;-67
2023/03/22 01:59:06;;;;;;;11.30;9.45;;;;;;;9.15;100.00;100648.09;5263806;28;20047;-66
2023/03/22 02:01:38;;;;;;;12.95;9.82;;;;;;;9.18;100.00;100640.28;5262641;28;20087;-67
2023/03/22 02:04:24;;;;;;;13.43;10.47;;;;;;;9.17;100.00;100639.38;5264191;28;20037;-67
2023/03/22 02:06:57;;;;;;;19.40;10.93;;;;;;;9.18;100.00;100635.91;5264471;28;20031;-67
2023/03/22 02:09:29;;;;;;;11.27;9.65;;;;;;;9.15;100.00;100635.94;5264058;28;20112;-67
2023/03/22 02:12:47;;;;;;;10.97;9.80;;;;;;;9.19;100.00;100635.03;5263509;28;20536;-68
2023/03/22 02:15:28;;;;;;;13.48;9.93;;;;;;;9.16;100.00;100623.78;5250361;28;20041;-67
2023/03/22 02:18:54;;;;;;;13.80;9.77;;;;;;;9.13;100.00;100630.75;5264368;28;20029;-66
2023/03/22 02:21:25;;;;;;;14.30;9.68;;;;;;;9.14;100.00;100621.22;5220055;28;20464;-67
2023/03/22 02:24:33;;;;;;;13.43;9.77;;;;;;;9.13;100.00;100620.34;5256059;28;20036;-67
2023/03/22 02:27:24;;;;;;;17.42;9.70;;;;;;;9.13;100.00;100617.75;5223700;28;20127;-67
2023/03/22 02:30:20;;;;;;;12.27;9.90;;;;;;;9.13;100.00;100609.97;5263661;28;20425;-66
2023/03/22 02:33:35;;;;;;;11.73;8.75;;;;;;;9.14;100.00;100613.41;5263828;28;20083;-67
2023/03/22 02:36:31;;;;;;;10.02;8.27;;;;;;;9.13;100.00;100615.16;5249735;28;20061;-67
2023/03/22 02:39:21;;;;;;;13.73;8.20;;;;;;;9.12;100.00;100613.41;5263833;28;20033;-66
2023/03/22 02:42:19;;;;;;;14.60;8.27;;;;;;;9.12;100.00;100607.38;5263377;28;20078;-66
2023/03/22 02:44:53;;;;;;;12.60;8.23;;;;;;;9.16;100.00;100603.88;5262917;28;20414;-66
2023/03/22 02:47:56;;;;;;;13.77;8.65;;;;;;;9.18;100.00;100604.72;5263098;28;20033;-67
2023/03/22 02:50:35;;;;;;;12.43;8.10;;;;;;;9.20;100.00;100607.31;5263117;28;20104;-67
2023/03/22 02:53:13;;;;;;;11.90;9.00;;;;;;;9.21;100.00;100609.88;5263395;28;20025;-68
2023/03/22 02:55:50;;;;;;;13.70;8.15;;;;;;;9.20;100.00;100600.34;5244907;28;20041;-67
2023/03/22 02:58:29;;;;;;;11.48;7.45;;;;;;;9.20;100.00;100584.75;5262578;28;20494;-67
2023/03/22 03:01:06;;;;;;;9.98;7.75;;;;;;;9.18;100.00;100583.91;5263634;28;20136;-67
2023/03/22 03:03:38;;;;;;;11.80;8.05;;;;;;;9.20;100.00;100594.28;5262476;28;20033;-67
2023/03/22 03:06:14;;;;;;;9.15;6.82;;;;;;;9.17;100.00;100589.97;5262137;28;20036;-67
2023/03/22 03:08:49;;;;;;;10.20;6.93;;;;;;;9.16;100.00;100588.28;5262704;28;20388;-67
2023/03/22 03:11:21;;;;;;;11.77;7.95;;;;;;;9.15;100.00;100577.88;5262571;28;20045;-67
2023/03/22 03:13:52;;;;;;;9.50;6.60;;;;;;;9.17;100.00;100579.56;5262671;28;20041;-67
2023/03/22 03:16:33;;;;;;;11.00;7.57;;;;;;;9.18;100.00;100577.84;5262235;28;20530;-67
2023/03/22 03:19:07;;;;;;;9.10;6.63;;;;;;;9.17;100.00;100587.38;5263033;28;20071;-67
2023/03/22 03:21:52;;;;;;;10.05;6.07;;;;;;;9.16;100.00;100572.66;5263012;28;20067;-67
2023/03/22 03:24:46;;;;;;;9.95;6.25;;;;;;;9.13;100.00;100572.69;5261816;28;20140;-68
2023/03/22 03:27:39;;;;;;;9.63;6.22;;;;;;;9.14;100.00;100579.59;5262482;28;20032;-70
2023/03/22 03:30:15;;;;;;;9.65;5.30;;;;;;;9.11;100.00;100571.81;5262434;28;20017;-68
2023/03/22 03:32:53;;;;;;;10.60;5.78;;;;;;;9.11;100.00;100574.44;5261964;28;20082;-68
2023/03/22 03:35:36;;;;;;;13.07;6.07;;;;;;;9.13;100.00;100570.09;5262130;28;20487;-67
2023/03/22 03:38:22;;;;;;;11.30;5.88;;;;;;;9.13;100.00;100568.34;5261877;28;20071;-67
2023/03/22 03:40:59;;;;;;;12.98;6.40;;;;;;;9.11;100.00;100570.13;5262493;28;20032;-67
2023/03/22 03:43:33;;;;;;;9.50;5.47;;;;;;;9.13;100.00;100573.56;5261189;28;20468;-68
2023/03/22 03:46:06;;;;;;;10.27;5.28;;;;;;;9.13;100.00;100568.34;5244334;28;20029;-67
2023/03/22 03:48:41;;;;;;;9.27;5.28;;;;;;;9.15;100.00;100567.47;5262097;28;20037;-68
2023/03/22 03:51:12;;;;;;;10.93;5.20;;;;;;;9.08;100.00;100569.25;5262200;28;20033;-67
2023/03/22 03:53:44;;;;;;;8.23;4.07;;;;;;;9.11;100.00;100580.50;5262727;28;20025;-68
2023/03/22 03:56:15;;;;;;;8.60;4.70;;;;;;;9.04;100.00;100570.19;5262053;28;20036;-67
2023/03/22 03:58:47;;;;;;;9.70;4.80;;;;;;;8.99;100.00;100579.78;5262261;28;20507;-67
2023/03/22 04:01:19;;;;;;;12.63;6.47;;;;;;;8.93;100.00;100578.06;5262128;28;20425;-67
2023/03/22 04:03:54;;;;;;;10.48;5.22;;;;;;;8.90;100.00;100578.09;5261670;28;20063;-67
2023/03/22 04:06:25;;;;;;;10.30;4.43;;;;;;;8.85;100.00;100572.94;5261945;28;20132;-67
2023/03/22 04:08:56;;;;;;;14.17;4.53;;;;;;;8.85;100.00;100575.53;5262650;28;20108;-66
2023/03/22 04:11:28;;;;;;;10.40;4.97;;;;;;;8.78;100.00;100576.47;5262715;28;20437;-67
2023/03/22 04:13:59;;;;;;;7.37;4.70;;;;;;;8.83;100.00;100571.25;5262598;28;20131;-68
2023/03/22 04:16:30;;;;;;;10.07;5.20;;;;;;;8.80;100.00;100563.47;5260874;28;20078;-66
2023/03/22 04:19:02;;;;;;;7.67;4.30;;;;;;;8.79;100.00;100567.81;5262070;28;20056;-67
2023/03/22 04:21:33;;;;;;;8.43;4.43;;;;;;;8.81;100.00;100563.47;5261957;28;20029;-67
2023/03/22 04:24:05;;;;;;;7.70;5.13;;;;;;;8.78;100.00;100563.50;5261674;28;20100;-67
2023/03/22 04:26:37;;;;;;;12.48;4.60;;;;;;;8.73;100.00;100560.94;5243987;28;20090;-67
2023/03/22 04:29:08;;;;;;;8.37;3.93;;;;;;;8.76;100.00;100557.44;5261592;28;20044;-67
2023/03/22 04:31:40;;;;;;;9.53;4.47;;;;;;;8.74;100.00;100546.19;5261794;28;20392;-67
2023/03/22 04:34:11;;;;;;;9.77;4.50;;;;;;;8.70;100.00;100547.09;5244741;28;20445;-67
2023/03/22 04:36:43;;;;;;;13.37;5.37;;;;;;;8.67;100.00;100549.72;5266137;28;20446;-67
2023/03/22 04:39:15;;;;;;;7.93;5.43;;;;;;;8.67;100.00;100542.78;5265386;28;20412;-67
2023/03/22 04:41:47;;;;;;;13.25;5.60;;;;;;;8.67;100.00;100542.78;5265906;28;20103;-67
2023/03/22 04:44:19;;;;;;;17.20;5.33;;;;;;;8.69;100.00;100547.97;5265418;28;20481;-67
2023/03/22 04:46:50;;;;;;;13.50;5.17;;;;;;;8.68;100.00;100546.28;5265506;28;20044;-67
2023/03/22 04:49:22;;;;;;;12.10;4.67;;;;;;;8.68;100.00;100547.13;5265348;28;20033;-67
2023/03/22 04:51:54;;;;;;;11.70;4.83;;;;;;;8.70;100.00;100541.91;5265032;28;20032;-66
2023/03/22 04:54:26;;;;;;;8.85;4.75;;;;;;;8.66;100.00;100542.78;5265001;28;20059;-66
2023/03/22 04:56:57;;;;;;;8.77;4.60;;;;;;;8.68;100.00;100538.47;5265585;28;20065;-66
2023/03/22 04:59:29;;;;;;;9.10;5.07;;;;;;;8.71;100.00;100554.00;5246845;28;20122;-66
2023/03/22 05:02:00;;;;;;;10.03;5.00;;;;;;;8.78;100.00;100554.84;5265364;28;20376;-66
2023/03/22 05:04:32;;;;;;;8.57;3.90;;;;;;;8.74;100.00;100544.47;5265095;28;20036;-66
2023/03/22 05:07:03;;;;;;;11.27;5.07;;;;;;;8.76;100.00;100536.66;5264781;28;20025;-66
2023/03/22 05:09:35;;;;;;;13.57;4.37;;;;;;;8.78;100.00;100539.25;5265033;28;20040;-66
2023/03/22 05:12:06;;;;;;;9.30;4.20;;;;;;;8.83;100.00;100542.66;5265376;28;20029;-66
2023/03/22 05:14:37;;;;;;;9.30;4.30;;;;;;;8.80;100.00;100540.94;5263729;28;20068;-66
2023/03/22 05:17:09;;;;;;;16.57;5.33;;;;;;;8.69;100.00;100535.81;5264459;28;20033;-68
2023/03/22 05:19:41;;;;;;;8.20;3.80;;;;;;;8.69;100.00;100528.03;5264962;28;20499;-67
2023/03/22 05:22:12;;;;;;;9.27;4.63;;;;;;;8.69;100.00;100534.97;5264622;28;20037;-67
2023/03/22 05:24:44;;;;;;;12.00;4.07;;;;;;;8.68;100.00;100533.28;5264380;28;20035;-67
2023/03/22 05:27:15;;;;;;;10.13;4.40;;;;;;;8.72;100.00;100530.59;5264526;28;20616;-66
2023/03/22 05:29:48;;;;;;;12.77;5.07;;;;;;;8.76;100.00;100531.47;5264384;28;20071;-66
2023/03/22 05:32:24;;;;;;;;;;;;;;;8.70;100.00;100537.56;5264289;28;20116;-67
2023/03/22 05:34:55;;;;;;;10.60;4.05;;;;;;;8.74;100.00;100536.69;5264630;28;19990;-67
2023/03/22 05:37:28;;;;;;;12.10;4.43;;;;;;;8.78;100.00;100534.91;5265302;28;20061;-68
2023/03/22 05:40:00;;;;;;;11.57;3.78;;;;;;;8.82;100.00;100533.13;5263370;28;20037;-68
2023/03/22 05:42:31;;;;;;;12.57;3.73;;;;;;;8.80;100.00;100538.34;5265157;28;20364;-68
2023/03/22 05:45:03;;;;;;;10.03;3.40;;;;;;;8.83;100.00;100521.88;5264555;28;20033;-68
2023/03/22 05:47:34;;;;;;;9.23;3.27;;;;;;;8.83;100.00;100521.88;5263269;28;20033;-68
2023/03/22 05:50:11;;;;;;;8.53;3.60;;;;;;;8.81;100.00;100536.63;5264040;28;20060;-68
2023/03/22 05:52:43;;;;;;;11.15;4.22;;;;;;;8.85;100.00;100540.91;5264454;28;20036;-68
2023/03/22 05:55:18;;;;;;;11.25;3.75;;;;;;;8.83;100.00;100538.31;5264263;28;20041;-68
2023/03/22 05:57:52;;;;;;;7.75;3.50;;;;;;;8.85;100.00;100539.16;5263600;28;20036;-68
2023/03/22 06:00:24;;;;;;;11.80;4.10;;;;;;;8.88;100.00;100539.13;5264255;28;20029;-68
2023/03/22 06:02:55;;;;;;;10.47;3.40;;;;;;;8.90;100.00;100544.31;5246653;28;20025;-68
2023/03/22 06:05:27;;;;;;;9.03;3.60;;;;;;;8.93;100.00;100542.56;5263948;28;20029;-67
2023/03/22 06:07:58;;;;;;;9.23;3.13;;;;;;;8.94;100.00;100540.81;5263915;28;20064;-68
2023/03/22 06:10:29;;;;;;;10.73;3.93;;;;;;;8.92;100.00;100525.22;5263877;28;20075;-68
2023/03/22 06:13:01;;;;;;;7.43;3.23;;;;;;;8.93;100.00;100531.28;5262464;28;20113;-68
2023/03/22 06:15:32;;;;;;;8.93;3.23;;;;;;;8.93;100.00;100539.97;5263406;28;20029;-68
2023/03/22 06:18:04;;;;;;;11.90;3.87;;;;;;;9.04;99.46;100523.38;5263587;28;20032;-68
2023/03/22 06:20:35;;;;;;;9.87;3.60;;;;;;;9.05;99.30;100527.72;5263545;28;20029;-68
2023/03/22 06:23:07;;;;;;;8.30;3.33;;;;;;;9.06;99.38;100538.06;5263727;28;20056;-68
2023/03/22 06:25:38;;;;;;;11.47;3.70;;;;;;;9.15;98.75;100538.88;5263094;28;20146;-69
2023/03/22 06:28:09;;;;;;;9.93;3.43;;;;;;;9.19;98.51;100550.94;5263185;28;20043;-68
2023/03/22 06:30:41;;;;;;;9.30;4.03;;;;;;;9.26;97.60;100537.00;5262189;28;20025;-68
2023/03/22 06:33:12;;;;;;;7.87;3.10;;;;;;;9.26;98.01;100537.88;5263273;28;20091;-68
2023/03/22 06:35:44;;;;;;;11.17;3.50;;;;;;;9.29;97.98;100537.84;5263383;28;20036;-68
2023/03/22 06:38:15;;;;;;;8.30;3.97;;;;;;;9.32;98.04;100536.91;5263762;28;20086;-66
2023/03/22 06:40:46;;;;;;;9.70;3.57;;;;;;;9.37;97.53;100539.47;5261906;28;20394;-68
2023/03/22 06:43:18;;;;;;;15.10;4.60;;;;;;;9.39;97.46;100541.19;5263322;28;20037;-68
2023/03/22 06:45:49;;;;;;;10.73;3.87;;;;;;;9.41;97.42;100547.22;5263547;28;20025;-68
2023/03/22 06:48:20;;;;;;;9.57;4.40;;;;;;;9.45;97.41;100545.44;5263092;28;20139;-67
2023/03/22 06:50:52;;;;;;;7.93;3.80;;;;;;;9.48;96.80;100555.81;5245767;28;20028;-68
2023/03/22 06:53:23;;;;;;;10.33;4.30;;;;;;;9.53;96.63;100551.44;5261575;28;20492;-67
2023/03/22 06:55:55;;;;;;;10.90;3.70;;;;;;;9.63;96.56;100549.59;5262818;28;20480;-67
2023/03/22 06:58:26;;;;;;;9.40;3.73;;;;;;;9.78;95.44;100549.38;5263216;28;20408;-68
2023/03/22 07:00:58;;;;;;;11.63;4.00;;;;;;;9.91;94.73;100533.59;5263675;28;20074;-69
2023/03/22 07:03:29;;;;;;;11.33;3.87;;;;;;;9.99;94.03;100535.19;5263143;28;20083;-68
2023/03/22 07:06:06;;;;;;;8.80;4.40;;;;;;;9.98;93.01;100543.03;5262472;28;20029;-67
2023/03/22 07:08:38;;;;;;;12.73;4.45;;;;;;;9.91;93.16;100537.03;5263166;28;20056;-68
2023/03/22 07:11:09;;;;;;;10.03;3.40;;;;;;;9.91;93.25;100537.03;5263277;28;20120;-69
2023/03/22 07:13:41;;;;;;;12.43;4.33;;;;;;;9.88;93.60;100533.63;5262068;28;20098;-67
2023/03/22 07:16:12;;;;;;;11.13;4.00;;;;;;;9.93;92.84;100534.41;5262903;28;20041;-68
2023/03/22 07:18:44;;;;;;;11.70;4.27;;;;;;;9.95;93.05;100540.47;5245367;28;20032;-68
2023/03/22 07:21:15;;;;;;;10.27;4.23;;;;;;;10.00;92.30;100541.28;5262724;28;20044;-67
2023/03/22 07:23:47;;;;;;;11.13;3.97;;;;;;;10.03;91.97;100539.47;5262940;28;20025;-67
2023/03/22 07:26:18;;;;;;;14.97;5.10;;;;;;;10.12;90.93;100551.50;5245802;28;20037;-67
2023/03/22 07:28:49;;;;;;;13.10;4.53;;;;;;;10.13;90.67;100544.56;5261512;28;20476;-67
2023/03/22 07:31:21;;;;;;;12.03;5.50;;;;;;;10.20;89.97;100560.06;5263271;28;20462;-67
2023/03/22 07:33:52;;;;;;;13.13;5.03;;;;;;;10.26;90.09;100555.66;5263613;28;20039;-68
2023/03/22 07:36:24;;;;;;;10.83;4.67;;;;;;;10.34;89.06;100546.88;5244743;28;20468;-67
2023/03/22 07:38:55;;;;;;;9.57;4.87;;;;;;;10.35;88.54;100553.81;5262495;28;20059;-67
2023/03/22 07:41:29;;;;;;;15.07;4.57;;;;;;;10.40;88.12;100562.41;5244647;28;20028;-68
2023/03/22 07:44:00;;;;;;;11.55;4.97;;;;;;;10.44;87.52;100547.56;5262651;28;20052;-67
2023/03/22 07:46:31;;;;;;;9.37;4.77;;;;;;;10.58;87.92;100548.22;5262252;28;20074;-67
2023/03/22 07:49:03;;;;;;;7.60;4.17;;;;;;;10.60;86.15;100557.78;5262791;28;20036;-67
2023/03/22 07:51:34;;;;;;;12.37;4.60;;;;;;;10.69;85.82;100557.59;5261673;28;20445;-67
2023/03/22 07:54:06;;;;;;;12.10;4.53;;;;;;;10.81;85.20;100557.38;5262355;28;20510;-68
2023/03/22 07:56:38;;;;;;;8.47;4.00;;;;;;;10.89;83.79;100552.91;5244302;28;20029;-67
2023/03/22 07:59:09;;;;;;;7.20;3.10;;;;;;;10.83;83.65;100550.38;5260840;28;20447;-67
2023/03/22 08:01:41;;;;;;;11.27;3.37;;;;;;;10.87;82.41;100553.81;5262290;28;20036;-68
2023/03/22 08:04:13;;;;;;;12.32;3.38;;;;;;;10.84;82.46;100554.72;5244234;28;20033;-68
2023/03/22 08:06:45;;;;;;;6.90;3.30;;;;;;;10.75;82.80;100557.50;5262109;28;20087;-68
2023/03/22 08:09:17;;;;;;;11.07;3.50;;;;;;;10.86;82.67;100559.91;5261112;28;20025;-68
2023/03/22 08:11:48;;;;;;;9.70;3.30;;;;;;;10.77;82.24;100561.81;5266350;28;20120;-67
2023/03/22 08:14:20;;;;;;;9.57;2.90;;;;;;;10.84;82.00;100556.50;5266529;28;20439;-68
2023/03/22 08:16:51;;;;;;;9.47;3.03;;;;;;;10.89;82.21;100559.88;5248307;28;20107;-68
2023/03/22 08:19:22;;;;;;;9.67;3.70;;;;;;;10.97;81.98;100557.97;5266115;28;20087;-68
2023/03/22 08:21:54;;;;;;;8.77;2.67;;;;;;;11.04;80.66;100545.69;5265841;28;20040;-67
2023/03/22 08:24:26;;;;;;;8.00;3.23;;;;;;;11.06;80.21;100575.19;5265783;28;20044;-67
2023/03/22 08:26:57;;;;;;;10.47;3.33;;;;;;;11.19;80.47;100552.34;5265591;28;20063;-68
2023/03/22 08:29:29;;;;;;;9.27;2.83;;;;;;;11.36;79.31;100555.50;5266185;28;20029;-70
2023/03/22 08:32:02;;;;;;;12.30;3.30;;;;;;;11.60;78.52;100554.16;5265891;28;20116;-69
2023/03/22 08:34:38;;;;;;;11.68;3.20;;;;;;;11.69;78.37;100555.72;5266511;28;20464;-68
2023/03/22 08:37:10;;;;;;;9.57;3.05;;;;;;;11.60;77.61;100559.38;5264864;28;20028;-68
2023/03/22 08:39:43;;;;;;;14.68;3.42;;;;;;;11.52;77.47;100545.63;5265672;28;20048;-68
2023/03/22 08:42:15;;;;;;;10.77;3.42;;;;;;;11.55;77.39;100542.09;5265594;28;20029;-68
2023/03/22 08:44:46;;;;;;;12.47;3.77;;;;;;;11.64;77.24;100540.16;5265669;28;20037;-68
2023/03/22 08:47:17;;;;;;;8.77;2.60;;;;;;;11.71;77.00;100540.88;5264281;28;20301;-67
2023/03/22 08:49:49;;;;;;;11.57;4.03;;;;;;;11.69;76.56;100550.50;5265253;28;20079;-66
2023/03/22 08:52:20;;;;;;;9.83;3.00;;;;;;;11.77;76.54;100538.13;5265457;28;20037;-68
2023/03/22 08:54:52;;;;;;;9.43;2.93;;;;;;;11.91;75.75;100544.78;5265351;28;20082;-67
2023/03/22 08:57:26;;;;;;;18.80;3.80;;;;;;;11.86;75.77;100534.44;5265607;28;20037;-68
2023/03/22 08:59:57;;;;;;;105.30;12.30;;;;;;;11.81;74.97;100549.38;5265680;28;20060;-67
2023/03/22 09:02:29;;;;;;;12.63;3.07;;;;;;;11.80;75.79;100564.19;5265293;28;20329;-67
2023/03/22 09:05:00;;;;;;;9.93;2.90;;;;;;;11.90;75.37;100545.69;5266001;28;20055;-68
2023/03/22 09:07:32;;;;;;;9.43;3.40;;;;;;;11.96;74.81;100536.00;5263974;28;20120;-68
2023/03/22 09:10:03;;;;;;;9.23;3.20;;;;;;;12.02;74.97;100553.28;5247188;28;20029;-67
2023/03/22 09:12:36;;;;;;;10.97;3.43;;;;;;;12.17;74.48;100533.78;5264869;28;20040;-67
2023/03/22 09:15:08;;;;;;;8.18;2.45;;;;;;;12.42;72.66;100543.66;5264807;28;20033;-67
2023/03/22 09:17:39;;;;;;;12.50;3.07;;;;;;;12.33;72.39;100548.22;5264781;28;20032;-68
2023/03/22 09:20:11;;;;;;;8.27;2.50;;;;;;;12.41;71.96;100521.88;5264518;28;20070;-67
2023/03/22 09:22:43;;;;;;;6.90;2.57;;;;;;;12.68;71.97;100519.47;5263485;28;20021;-67
2023/03/22 09:25:14;;;;;;;9.93;2.73;;;;;;;12.81;70.83;100520.00;5264755;28;20328;-67
2023/03/22 09:27:46;;;;;;;15.47;3.53;;;;;;;12.76;70.72;100522.75;5264727;28;20025;-67
2023/03/22 09:30:17;;;;;;;8.13;2.50;;;;;;;12.62;70.75;100520.47;5264671;28;20059;-67
2023/03/22 09:32:48;;;;;;;14.40;3.30;;;;;;;12.60;70.57;100519.66;5264636;28;20032;-66
2023/03/22 09:35:20;;;;;;;8.87;3.17;;;;;;;12.71;70.72;100522.00;5264187;28;20043;-67
2023/03/22 09:37:53;;;;;;;12.18;3.25;;;;;;;12.55;70.59;100526.78;5246467;28;20029;-67
2023/03/22 09:40:31;;;;;;;;;;;;;;;12.59;70.84;100520.59;5247210;28;20521;-67
2023/03/22 09:43:06;;;;;;;10.65;3.78;;;;;;;12.30;71.04;100516.94;5264098;28;19915;-68
2023/03/22 09:45:42;;;;;;;9.45;2.83;;;;;;;12.13;71.85;100521.69;5264599;28;20028;-66
2023/03/22 09:48:21;;;;;;;8.68;2.65;;;;;;;12.13;72.15;100530.38;5265102;28;20025;-66
2023/03/22 09:50:53;;;;;;;7.95;2.80;;;;;;;12.10;72.09;100516.53;5264332;28;20442;-66
2023/03/22 09:53:26;;;;;;;;;;;;;;;12.22;72.42;100513.66;5264638;28;20036;-67
2023/03/22 09:56:03;;;;;;;11.10;3.97;;;;;;;12.06;72.19;100520.09;5264057;28;19954;-67
2023/03/22 09:58:47;;;;;;;9.85;2.75;;;;;;;12.00;72.34;100526.34;5264575;28;20110;-68
2023/03/22 10:01:27;;;;;;;9.15;3.17;;;;;;;11.96;72.62;100516.84;5264043;28;20029;-68
2023/03/22 10:04:31;;;;;;;7.45;2.72;;;;;;;11.88;73.19;100527.44;5264327;28;20044;-67
2023/03/22 10:07:38;;;;;;;8.85;2.97;;;;;;;11.91;73.18;100527.38;5254726;28;20516;-67
2023/03/22 10:10:18;;;;;;;11.95;2.95;;;;;;;11.86;73.71;100518.78;5264206;28;20033;-68
2023/03/22 10:13:20;;;;;;;9.13;3.05;;;;;;;11.95;73.74;100525.59;5264565;28;20033;-67
2023/03/22 10:15:57;;;;;;;9.05;2.47;;;;;;;11.84;74.31;100521.41;5246704;28;20461;-67
2023/03/22 10:18:35;;;;;;;8.18;2.40;;;;;;;11.86;73.78;100534.44;5264022;28;20207;-68
2023/03/22 10:21:16;;;;;;;8.13;2.97;;;;;;;11.71;74.85;100516.53;5263760;28;20029;-67
2023/03/22 10:24:18;;;;;;;10.60;2.92;;;;;;;11.58;75.67;100563.75;5263672;28;20480;-67
2023/03/22 10:26:50;;;;;;;9.05;2.65;;;;;;;11.34;77.99;100536.41;5263831;28;20033;-67
2023/03/22 10:29:38;;;;;;;9.07;2.53;;;;;;;11.35;78.91;100547.69;5263821;28;20043;-67
2023/03/22 10:32:17;;;;;;;11.07;3.15;;;;;;;11.11;83.01;100549.91;5262716;28;20036;-67
2023/03/22 10:34:49;;;;;;;15.88;4.20;;;;;;;10.60;88.58;100547.34;5263770;28;20036;-67
2023/03/22 10:37:25;;;;;;;10.50;3.53;;;;;;;10.20;92.74;100541.81;5245383;28;20057;-67
2023/03/22 10:40:00;;;;;;;10.52;3.10;;;;;;;9.98;95.56;100543.91;5263940;28;20033;-66
2023/03/22 10:42:35;;;;;;;11.63;3.17;;;;;;;9.75;100.00;100525.97;5245387;28;20055;-67
2023/03/22 10:45:16;;;;;;;11.15;3.70;;;;;;;9.70;100.00;100537.34;5262847;28;20103;-66
2023/03/22 10:47:52;;;;;;;11.95;3.08;;;;;;;9.61;100.00;100535.72;5263229;28;20036;-67
2023/03/22 10:50:29;;;;;;;17.42;3.28;;;;;;;9.65;100.00;100533.06;5263389;28;20468;-66
2023/03/22 10:53:30;;;;;;;11.70;4.05;;;;;;;9.73;100.00;100539.91;5263064;28;20094;-67
2023/03/22 10:56:02;;;;;;;9.77;3.63;;;;;;;9.64;100.00;100538.28;5262879;28;20514;-67
2023/03/22 10:58:34;;;;;;;10.57;3.67;;;;;;;9.60;100.00;100502.78;5262143;28;20575;-66
2023/03/22 11:01:11;;;;;;;8.03;3.20;;;;;;;9.50;100.00;100528.06;5262601;28;20108;-67
2023/03/22 11:03:56;;;;;;;13.35;3.80;;;;;;;9.51;100.00;100536.72;5262480;28;20104;-67
2023/03/22 11:06:31;;;;;;;8.40;3.30;;;;;;;9.45;100.00;100533.31;5263187;28;20075;-67
2023/03/22 11:09:16;;;;;;;12.00;4.07;;;;;;;9.50;100.00;100525.47;5262235;28;20032;-67
2023/03/22 11:11:59;;;;;;;8.70;4.10;;;;;;;9.45;100.00;100535.03;5262473;28;20079;-67
2023/03/22 11:14:42;;;;;;;11.63;3.72;;;;;;;9.55;100.00;100530.59;5262988;28;20465;-67
2023/03/22 11:17:18;;;;;;;;;;;;;;;9.63;100.00;100536.56;5263502;28;20036;-67
2023/03/22 11:19:54;;;;;;;15.50;4.55;;;;;;;9.69;100.00;100523.44;5262451;28;19931;-68
2023/03/22 11:22:34;;;;;;;12.07;3.88;;;;;;;9.80;100.00;100523.31;5263109;28;20021;-67
2023/03/22 11:25:25;;;;;;;8.05;3.53;;;;;;;9.92;100.00;100517.06;5262412;28;20088;-68
2023/03/22 11:28:14;;;;;;;13.35;5.28;;;;;;;10.10;100.00;100516.81;5245095;28;20469;-68
2023/03/22 11:31:10;;;;;;;9.45;3.13;;;;;;;10.18;100.00;100519.31;5263692;28;20084;-67
2023/03/22 11:34:01;;;;;;;10.80;4.55;;;;;;;10.20;100.00;100525.34;5262622;28;20060;-68
2023/03/22 11:36:43;;;;;;;8.38;2.95;;;;;;;10.29;100.00;100519.13;5262814;28;20383;-68
2023/03/22 11:39:14;;;;;;;9.18;3.53;;;;;;;10.42;100.00;100517.19;5262953;28;20472;-68
2023/03/22 11:41:46;;;;;;;9.80;2.97;;;;;;;10.46;100.00;100509.31;5262514;28;20040;-66
2023/03/22 11:44:20;;;;;;;12.17;3.77;;;;;;;10.59;99.56;100520.38;5261886;28;20409;-68
2023/03/22 11:46:59;;;;;;;7.53;2.83;;;;;;;10.85;99.22;100517.34;5262580;28;20056;-69
2023/03/22 11:49:46;;;;;;;5.35;2.20;;;;;;;11.05;95.64;100521.34;5262853;28;20029;-68
2023/03/22 11:52:22;;;;;;;7.05;2.50;;;;;;;11.24;94.66;100507.03;5262674;28;20108;-69
2023/03/22 11:54:55;;;;;;;14.27;3.45;;;;;;;11.32;92.35;100525.16;5245474;28;20372;-67
2023/03/22 11:57:28;;;;;;;;;;;;;;;11.35;91.19;100519.00;5262513;28;20086;-67
2023/03/22 12:00:05;;;;;;;8.68;3.30;;;;;;;11.43;91.53;100506.66;5262586;28;19920;-67